createdAt,value
2019-03-31T00:01:51.352Z,77.14
2019-03-31T00:05:05.553Z,77.08
2019-03-31T00:08:19.878Z,76.74
2019-03-31T00:11:34.311Z,76.69
2019-03-31T00:14:48.312Z,77.41
2019-03-31T00:18:02.545Z,77.46
2019-03-31T00:21:16.665Z,77.53
2019-03-31T00:24:31.041Z,77.83
2019-03-31T00:27:45.080Z,78.04
2019-03-31T00:30:59.311Z,77.95
2019-03-31T00:34:13.424Z,77.93
2019-03-31T00:37:27.430Z,77.78
2019-03-31T00:40:41.579Z,77.97
2019-03-31T00:43:55.621Z,78.46
2019-03-31T00:47:09.723Z,79.01
2019-03-31T00:50:23.716Z,78.87
2019-03-31T00:53:37.999Z,78.94
2019-03-31T00:56:52.130Z,78.85
2019-03-31T01:00:08.349Z,78.68
2019-03-31T01:03:23.269Z,78.47
2019-03-31T01:06:38.337Z,78.58
2019-03-31T01:09:55.531Z,78.98
2019-03-31T01:13:09.947Z,79.51
2019-03-31T01:16:25.595Z,79.76
2019-03-31T01:19:40.178Z,79.71
2019-03-31T01:22:54.448Z,79.50
2019-03-31T01:26:08.624Z,79.76
2019-03-31T01:29:23.128Z,79.65
2019-03-31T01:32:37.446Z,80.18
2019-03-31T01:35:51.424Z,80.13
2019-03-31T01:39:07.256Z,80.13
2019-03-31T01:42:21.560Z,79.89
2019-03-31T01:45:35.557Z,79.84
2019-03-31T01:48:49.759Z,79.68
2019-03-31T01:52:04.078Z,79.83
2019-03-31T01:55:18.415Z,79.80
2019-03-31T01:58:33.248Z,80.13
2019-03-31T02:01:47.339Z,79.93
2019-03-31T02:05:01.440Z,80.03
2019-03-31T02:08:15.451Z,80.93
2019-03-31T02:11:29.431Z,81.65
2019-03-31T02:14:43.511Z,81.72
2019-03-31T02:17:57.707Z,81.64
2019-03-31T02:21:11.683Z,81.35
2019-03-31T02:24:25.702Z,81.89
2019-03-31T02:27:39.958Z,81.58
2019-03-31T02:30:54.377Z,81.05
2019-03-31T02:34:08.370Z,81.01
2019-03-31T02:37:22.344Z,80.97
2019-03-31T02:40:36.749Z,81.31
2019-03-31T02:43:51.381Z,81.60
2019-03-31T02:47:05.377Z,81.42
2019-03-31T02:50:48.636Z,81.21
2019-03-31T02:54:02.952Z,81.36
2019-03-31T02:57:20.491Z,81.54
2019-03-31T03:00:36.197Z,81.52
2019-03-31T03:07:18.589Z,81.50
2019-03-31T03:10:34.184Z,81.34
2019-03-31T03:13:49.126Z,81.54
2019-03-31T03:17:03.338Z,81.81
2019-03-31T03:20:17.344Z,82.14
2019-03-31T03:23:31.357Z,82.02
2019-03-31T03:26:45.350Z,82.03
2019-03-31T03:29:59.696Z,82.27
2019-03-31T03:33:17.318Z,82.27
2019-03-31T03:36:30.101Z,82.77
2019-03-31T03:39:44.087Z,82.58
2019-03-31T03:42:58.105Z,82.39
2019-03-31T03:46:12.188Z,82.45
2019-03-31T03:49:26.305Z,82.42
2019-03-31T03:52:40.317Z,82.53
2019-03-31T03:55:54.330Z,82.24
2019-03-31T03:59:08.610Z,82.57
2019-03-31T04:02:22.638Z,82.46
2019-03-31T04:05:36.652Z,82.34
2019-03-31T04:08:50.688Z,82.51
2019-03-31T04:12:04.752Z,82.65
2019-03-31T04:15:18.755Z,82.90
2019-03-31T04:18:33.430Z,82.88
2019-03-31T04:21:47.703Z,82.88
2019-03-31T04:25:01.690Z,82.76
2019-03-31T04:28:15.695Z,82.81
2019-03-31T04:31:30.040Z,82.83
2019-03-31T04:34:44.072Z,82.73
2019-03-31T04:37:58.062Z,82.67
2019-03-31T04:41:12.608Z,82.86
2019-03-31T04:44:26.617Z,82.99
2019-03-31T04:47:40.638Z,83.38
2019-03-31T04:50:54.899Z,83.25
2019-03-31T04:54:09.215Z,83.41
2019-03-31T04:57:23.193Z,83.18
2019-03-31T05:00:37.489Z,83.40
2019-03-31T05:04:03.836Z,83.16
2019-03-31T05:07:07.723Z,83.17
2019-03-31T05:10:21.707Z,82.95
2019-03-31T05:13:35.839Z,83.06
2019-03-31T05:16:49.888Z,83.02
2019-03-31T05:20:04.464Z,82.99
2019-03-31T05:23:18.475Z,83.06
2019-03-31T05:26:32.494Z,83.15
2019-03-31T05:29:46.505Z,83.26
2019-03-31T05:33:00.486Z,83.17
2019-03-31T05:36:14.500Z,83.18
2019-03-31T05:39:28.779Z,83.79
2019-03-31T05:42:42.831Z,83.61
2019-03-31T05:45:57.386Z,83.65
2019-03-31T05:49:11.489Z,83.61
2019-03-31T05:52:25.498Z,83.89
2019-03-31T05:55:39.908Z,83.76
2019-03-31T05:59:13.609Z,83.65
2019-03-31T06:02:27.619Z,83.80
2019-03-31T06:05:41.724Z,84.07
2019-03-31T06:08:55.743Z,84.23
2019-03-31T06:12:09.734Z,84.23
2019-03-31T06:15:23.740Z,84.10
2019-03-31T06:18:37.856Z,84.05
2019-03-31T06:21:51.881Z,84.31
2019-03-31T06:25:06.086Z,84.50
2019-03-31T06:28:20.358Z,84.57
2019-03-31T06:31:34.373Z,84.57
2019-03-31T06:34:48.370Z,84.09
2019-03-31T06:38:02.512Z,83.43
2019-03-31T06:41:16.934Z,83.09
2019-03-31T06:44:30.918Z,83.34
2019-03-31T06:47:45.327Z,83.22
2019-03-31T06:50:59.265Z,82.70
2019-03-31T06:54:13.262Z,82.13
2019-03-31T06:57:27.555Z,82.04
2019-03-31T07:00:41.643Z,81.54
2019-03-31T07:03:55.756Z,81.49
2019-03-31T07:07:09.761Z,81.13
2019-03-31T07:10:24.144Z,80.73
2019-03-31T07:13:38.942Z,80.60
2019-03-31T07:16:53.536Z,80.73
2019-03-31T07:20:09.625Z,80.29
2019-03-31T07:23:23.729Z,80.23
2019-03-31T07:26:38.156Z,79.90
2019-03-31T07:29:52.573Z,79.65
2019-03-31T07:33:06.817Z,78.95
2019-03-31T07:36:21.083Z,77.62
2019-03-31T07:39:35.247Z,77.10
2019-03-31T07:42:51.118Z,76.03
2019-03-31T07:46:05.534Z,75.28
2019-03-31T07:49:19.885Z,74.42
2019-03-31T07:52:34.372Z,72.86
2019-03-31T07:55:48.457Z,71.73
2019-03-31T07:59:02.434Z,70.31
2019-03-31T08:02:16.808Z,69.34
2019-03-31T08:05:33.372Z,67.40
2019-03-31T08:08:47.415Z,66.49
2019-03-31T08:12:01.556Z,64.43
2019-03-31T08:15:15.869Z,63.74
2019-03-31T08:18:30.220Z,63.39
2019-03-31T08:21:44.169Z,62.28
2019-03-31T08:24:58.590Z,60.74
2019-03-31T08:28:12.714Z,60.18
2019-03-31T08:31:27.028Z,58.78
2019-03-31T08:34:41.465Z,56.93
2019-03-31T08:37:55.464Z,55.65
2019-03-31T08:41:09.950Z,54.09
2019-03-31T08:44:24.249Z,52.98
2019-03-31T08:47:38.822Z,52.58
2019-03-31T08:50:52.854Z,50.33
2019-03-31T08:54:07.273Z,49.13
2019-03-31T08:57:21.767Z,48.30
2019-03-31T09:00:45.903Z,46.32
2019-03-31T09:04:00.259Z,44.17
2019-03-31T09:07:14.283Z,43.52
2019-03-31T09:10:28.681Z,42.62
2019-03-31T09:13:42.987Z,40.87
2019-03-31T09:16:57.170Z,40.03
2019-03-31T09:20:13.290Z,37.78
2019-03-31T09:23:27.960Z,38.77
2019-03-31T09:26:44.972Z,39.00
2019-03-31T09:29:59.970Z,37.28
2019-03-31T09:33:16.840Z,37.56
2019-03-31T09:36:32.265Z,36.44
2019-03-31T09:39:47.507Z,35.89
2019-03-31T09:43:03.605Z,36.20
2019-03-31T09:46:20.700Z,35.49
2019-03-31T09:49:40.467Z,35.88
2019-03-31T09:52:54.705Z,34.39
2019-03-31T09:56:08.785Z,34.84
2019-03-31T09:59:23.386Z,35.88
2019-03-31T10:02:38.253Z,32.84
2019-03-31T10:05:52.268Z,33.56
2019-03-31T10:09:06.660Z,35.44
2019-03-31T10:12:20.731Z,33.83
2019-03-31T10:15:34.888Z,34.22
2019-03-31T10:18:49.214Z,33.39
2019-03-31T10:22:03.242Z,32.39
2019-03-31T10:25:17.383Z,33.79
2019-03-31T10:28:31.853Z,33.44
2019-03-31T10:31:46.162Z,33.28
2019-03-31T10:35:01.514Z,33.64
2019-03-31T10:38:16.069Z,33.61
2019-03-31T10:41:31.047Z,34.28
2019-03-31T10:44:46.285Z,32.11
2019-03-31T10:48:00.595Z,31.43
2019-03-31T10:51:15.127Z,31.68
2019-03-31T10:54:29.547Z,31.80
2019-03-31T10:57:43.783Z,31.66
2019-03-31T11:00:58.444Z,30.42
2019-03-31T11:04:12.993Z,30.23
2019-03-31T11:07:27.348Z,30.72
2019-03-31T11:10:42.009Z,29.93
2019-03-31T11:13:56.542Z,29.15
2019-03-31T11:17:11.116Z,29.07
2019-03-31T11:20:25.696Z,27.72
2019-03-31T11:23:39.726Z,29.56
2019-03-31T11:26:54.176Z,29.24
2019-03-31T11:30:08.737Z,28.54
2019-03-31T11:33:22.764Z,28.73
2019-03-31T11:36:36.856Z,29.51
2019-03-31T11:39:50.871Z,27.72
2019-03-31T11:43:05.300Z,26.60
2019-03-31T11:46:19.568Z,27.38
2019-03-31T11:49:33.681Z,27.21
2019-03-31T11:52:48.099Z,26.34
2019-03-31T11:56:02.099Z,26.33
2019-03-31T11:59:16.130Z,26.31
2019-03-31T12:02:30.297Z,25.84
2019-03-31T12:05:44.313Z,25.47
2019-03-31T12:08:58.359Z,23.94
2019-03-31T12:12:12.459Z,23.74
2019-03-31T12:15:27.137Z,23.95
2019-03-31T12:18:41.477Z,25.26
2019-03-31T12:21:55.609Z,25.70
2019-03-31T12:25:09.665Z,24.42
2019-03-31T12:28:24.115Z,24.32
2019-03-31T12:31:38.200Z,23.65
2019-03-31T12:34:52.434Z,24.30
2019-03-31T12:38:06.533Z,23.84
2019-03-31T12:41:20.763Z,23.15
2019-03-31T12:44:35.067Z,24.81
2019-03-31T12:47:49.068Z,25.02
2019-03-31T12:51:03.279Z,25.30
2019-03-31T12:54:17.420Z,21.68
2019-03-31T12:57:31.558Z,23.33
2019-03-31T13:00:46.051Z,24.28
2019-03-31T13:04:00.140Z,24.69
2019-03-31T13:07:15.103Z,25.25
2019-03-31T13:10:29.289Z,25.28
2019-03-31T13:13:43.412Z,25.73
2019-03-31T13:16:57.432Z,26.51
2019-03-31T13:20:12.262Z,25.83
2019-03-31T13:23:26.799Z,24.95
2019-03-31T13:26:40.903Z,22.50
2019-03-31T13:29:55.037Z,22.77
2019-03-31T13:33:09.059Z,23.01
2019-03-31T13:36:23.082Z,21.89
2019-03-31T13:39:37.099Z,22.91
2019-03-31T13:42:51.388Z,25.25
2019-03-31T13:46:05.409Z,26.55
2019-03-31T13:49:20.008Z,27.99
2019-03-31T13:52:34.585Z,26.03
2019-03-31T13:55:49.747Z,25.01
2019-03-31T13:59:04.059Z,23.57
2019-03-31T14:02:18.587Z,22.04
2019-03-31T14:05:32.788Z,23.22
2019-03-31T14:08:46.910Z,25.05
2019-03-31T14:12:00.974Z,25.44
2019-03-31T14:15:19.427Z,27.48
2019-03-31T14:18:31.199Z,27.80
2019-03-31T14:21:45.900Z,28.30
2019-03-31T14:25:00.539Z,28.50
2019-03-31T14:28:15.204Z,29.14
2019-03-31T14:31:29.276Z,29.07
2019-03-31T14:34:43.887Z,27.13
2019-03-31T14:37:58.353Z,26.82
2019-03-31T14:41:12.784Z,25.62
2019-03-31T14:44:26.799Z,25.49
2019-03-31T14:47:41.167Z,23.53
2019-03-31T14:50:55.500Z,24.93
2019-03-31T14:54:09.618Z,26.37
2019-03-31T14:57:24.092Z,27.17
2019-03-31T15:00:38.268Z,26.88
2019-03-31T15:03:52.954Z,28.22
2019-03-31T15:07:07.091Z,28.85
2019-03-31T15:10:21.278Z,28.68
2019-03-31T15:13:35.578Z,27.93
2019-03-31T15:16:49.829Z,27.42
2019-03-31T15:20:04.802Z,26.50
2019-03-31T15:23:28.965Z,27.28
2019-03-31T15:26:40.974Z,27.19
2019-03-31T15:29:55.710Z,27.08
2019-03-31T15:33:35.210Z,26.94
2019-03-31T15:36:49.742Z,27.44
2019-03-31T15:40:05.041Z,26.05
2019-03-31T15:43:19.058Z,27.11
2019-03-31T15:46:33.430Z,28.02
2019-03-31T15:49:47.744Z,27.97
2019-03-31T15:53:01.994Z,29.48
2019-03-31T15:56:16.084Z,29.07
2019-03-31T15:59:30.126Z,29.22
2019-03-31T16:02:44.312Z,29.74
2019-03-31T16:05:58.775Z,29.81
2019-03-31T16:09:22.842Z,30.70
2019-03-31T16:12:27.663Z,32.12
2019-03-31T16:15:41.176Z,32.10
2019-03-31T16:18:54.694Z,37.31
2019-03-31T16:22:08.517Z,38.77
2019-03-31T16:25:26.514Z,40.71
2019-03-31T16:28:39.983Z,42.66
2019-03-31T16:31:53.553Z,43.39
2019-03-31T16:35:07.174Z,44.06
2019-03-31T16:38:21.062Z,44.83
2019-03-31T16:41:34.906Z,45.57
2019-03-31T16:44:58.190Z,45.92
2019-03-31T16:48:04.733Z,45.90
2019-03-31T16:51:18.495Z,46.06
2019-03-31T16:54:31.976Z,47.27
2019-03-31T16:57:45.801Z,47.45
2019-03-31T17:00:59.361Z,47.35
2019-03-31T17:04:12.825Z,47.04
2019-03-31T17:07:26.975Z,47.82
2019-03-31T17:10:40.764Z,49.00
2019-03-31T17:13:54.341Z,49.29
2019-03-31T17:17:07.832Z,49.95
2019-03-31T17:20:21.872Z,50.35
2019-03-31T17:23:35.330Z,51.92
2019-03-31T17:26:49.076Z,52.24
2019-03-31T17:30:04.212Z,52.95
2019-03-31T17:33:17.996Z,52.93
2019-03-31T17:36:31.472Z,53.18
2019-03-31T17:39:44.936Z,53.60
2019-03-31T17:42:58.405Z,53.70
2019-03-31T17:46:11.875Z,53.95
2019-03-31T17:49:25.694Z,54.77
2019-03-31T17:52:39.152Z,54.86
2019-03-31T17:55:52.737Z,55.28
2019-03-31T17:59:08.987Z,55.54
2019-03-31T18:02:23.088Z,55.45
2019-03-31T18:05:36.572Z,55.88
2019-03-31T18:08:50.037Z,56.38
2019-03-31T18:12:03.621Z,56.43
2019-03-31T18:15:17.084Z,57.14
2019-03-31T18:18:30.905Z,57.25
2019-03-31T18:21:44.637Z,57.60
2019-03-31T18:24:58.135Z,57.82
2019-03-31T18:28:12.025Z,58.12
2019-03-31T18:31:25.537Z,58.47
2019-03-31T18:34:38.969Z,59.38
2019-03-31T18:37:52.792Z,60.00
2019-03-31T18:41:06.419Z,60.33
2019-03-31T18:44:19.976Z,60.86
2019-03-31T18:47:33.798Z,61.08
2019-03-31T18:50:47.449Z,61.57
2019-03-31T18:54:16.458Z,61.34
2019-03-31T18:58:04.998Z,61.99
2019-03-31T19:01:29.518Z,61.98
2019-03-31T19:05:11.834Z,61.94
2019-03-31T19:08:49.465Z,61.35
2019-03-31T19:12:29.459Z,61.08
2019-03-31T19:15:53.821Z,61.32
2019-03-31T19:19:18.028Z,61.86
2019-03-31T19:22:38.544Z,61.19
2019-03-31T19:26:18.052Z,61.17
2019-03-31T19:29:44.565Z,61.44
2019-03-31T19:33:04.995Z,61.32
2019-03-31T19:36:38.679Z,62.20
2019-03-31T19:40:12.242Z,62.54
2019-03-31T19:43:32.787Z,62.53
2019-03-31T19:46:55.878Z,62.55
2019-03-31T19:50:22.362Z,62.33
2019-03-31T19:53:54.280Z,62.42
2019-03-31T19:57:30.759Z,62.71
2019-03-31T20:01:06.793Z,63.01
2019-03-31T20:04:30.090Z,63.42
2019-03-31T20:08:15.880Z,63.30
2019-03-31T20:11:51.687Z,63.48
2019-03-31T20:15:33.410Z,63.43
2019-03-31T20:18:55.490Z,63.45
2019-03-31T20:22:37.904Z,63.89
2019-03-31T20:26:12.739Z,63.17
2019-03-31T20:29:37.245Z,63.70
2019-03-31T20:33:12.653Z,63.58
2019-03-31T20:36:50.200Z,63.49
2019-03-31T20:40:17.074Z,63.94
2019-03-31T20:44:02.574Z,64.09
2019-03-31T20:47:16.343Z,64.17
2019-03-31T20:50:29.787Z,64.51
2019-03-31T20:53:43.360Z,64.33
2019-03-31T20:56:56.977Z,64.62
2019-03-31T21:00:10.925Z,64.96
2019-03-31T21:03:24.383Z,65.21
2019-03-31T21:06:37.852Z,64.66
2019-03-31T21:09:51.572Z,65.16
2019-03-31T21:13:05.049Z,65.64
2019-03-31T21:16:18.512Z,65.57
2019-03-31T21:19:31.968Z,65.97
2019-03-31T21:22:45.445Z,65.89
2019-03-31T21:25:58.920Z,65.75
2019-03-31T21:29:12.391Z,65.96
2019-03-31T21:32:25.864Z,66.39
2019-03-31T21:35:39.559Z,65.99
2019-03-31T21:38:53.323Z,66.13
2019-03-31T21:42:07.022Z,65.73
2019-03-31T21:45:20.795Z,65.96
2019-03-31T21:48:34.258Z,66.31
2019-03-31T21:51:47.706Z,66.36
2019-03-31T21:55:01.449Z,66.88
2019-03-31T21:58:14.917Z,66.84
2019-03-31T22:01:29.902Z,67.28
2019-03-31T22:04:43.596Z,67.41
2019-03-31T22:07:57.307Z,67.54
2019-03-31T22:11:11.029Z,67.76
2019-03-31T22:14:24.839Z,67.89
2019-03-31T22:17:38.458Z,67.90
2019-03-31T22:20:52.300Z,67.72
2019-03-31T22:24:06.143Z,67.99
2019-03-31T22:27:19.599Z,68.10
2019-03-31T22:30:35.258Z,68.36
2019-03-31T22:33:48.723Z,68.04
2019-03-31T22:37:02.172Z,68.40
2019-03-31T22:40:15.662Z,68.12
2019-03-31T22:43:29.128Z,68.56
2019-03-31T22:46:53.675Z,68.54
2019-03-31T22:49:57.930Z,68.25
2019-03-31T22:53:11.691Z,68.45
2019-03-31T22:56:25.146Z,69.52
2019-03-31T22:59:38.867Z,69.39
2019-03-31T23:02:52.469Z,69.31
2019-03-31T23:06:05.914Z,69.12
2019-03-31T23:09:19.371Z,69.19
2019-03-31T23:12:32.840Z,70.03
2019-03-31T23:15:46.531Z,70.46
2019-03-31T23:18:59.989Z,70.76
2019-03-31T23:22:13.474Z,70.96
2019-03-31T23:25:26.942Z,71.38
2019-03-31T23:28:46.282Z,71.64
2019-03-31T23:31:59.736Z,72.72
2019-03-31T23:35:13.361Z,72.67
2019-03-31T23:38:26.787Z,73.75
2019-03-31T23:41:40.505Z,73.31
2019-03-31T23:44:54.260Z,73.32
2019-03-31T23:48:07.735Z,73.33
2019-03-31T23:51:21.198Z,73.59
2019-03-31T23:54:34.679Z,73.61
2019-03-31T23:57:48.144Z,74.09
